sensor_id;sensor_type;location;lat;lon;timestamp;pressure;altitude;pressure_sealevel;temperature;humidity
55604;BME280;41468;48.838;9.330;2023-08-08T00:02:03;98452.69;;;14.54;77.17
55604;BME280;41468;48.838;9.330;2023-08-08T00:04:37;98459.72;;;14.41;78.21
55604;BME280;41468;48.838;9.330;2023-08-08T00:07:03;98455.00;;;14.38;78.59
55604;BME280;41468;48.838;9.330;2023-08-08T00:09:30;98459.69;;;14.34;79.62
55604;BME280;41468;48.838;9.330;2023-08-08T00:11:57;98465.16;;;14.23;80.10
55604;BME280;41468;48.838;9.330;2023-08-08T00:14:24;98464.00;;;14.24;79.67
55604;BME280;41468;48.838;9.330;2023-08-08T00:16:51;98468.31;;;14.25;80.10
55604;BME280;41468;48.838;9.330;2023-08-08T00:19:18;98465.56;;;14.25;77.87
55604;BME280;41468;48.838;9.330;2023-08-08T00:21:45;98465.19;;;14.34;78.76
55604;BME280;41468;48.838;9.330;2023-08-08T00:24:11;98467.53;;;14.39;79.28
55604;BME280;41468;48.838;9.330;2023-08-08T00:26:38;98461.28;;;14.35;79.08
55604;BME280;41468;48.838;9.330;2023-08-08T00:29:09;98456.19;;;14.41;79.10
55604;BME280;41468;48.838;9.330;2023-08-08T00:31:36;98458.13;;;14.47;77.47
55604;BME280;41468;48.838;9.330;2023-08-08T00:34:03;98461.34;;;14.56;77.83
55604;BME280;41468;48.838;9.330;2023-08-08T00:36:30;98460.94;;;14.58;77.82
55604;BME280;41468;48.838;9.330;2023-08-08T00:38:57;98464.44;;;14.51;75.71
55604;BME280;41468;48.838;9.330;2023-08-08T00:41:23;98452.31;;;14.63;75.24
55604;BME280;41468;48.838;9.330;2023-08-08T00:43:50;98459.78;;;14.70;75.45
55604;BME280;41468;48.838;9.330;2023-08-08T00:46:20;98457.81;;;14.70;75.34
55604;BME280;41468;48.838;9.330;2023-08-08T00:48:48;98457.03;;;14.77;75.45
55604;BME280;41468;48.838;9.330;2023-08-08T00:51:15;98453.09;;;14.71;76.19
55604;BME280;41468;48.838;9.330;2023-08-08T00:53:44;98450.75;;;14.76;76.38
55604;BME280;41468;48.838;9.330;2023-08-08T00:56:17;98451.53;;;14.77;75.50
55604;BME280;41468;48.838;9.330;2023-08-08T00:58:44;98454.69;;;14.79;75.24
55604;BME280;41468;48.838;9.330;2023-08-08T01:01:17;98448.00;;;14.80;75.48
55604;BME280;41468;48.838;9.330;2023-08-08T01:03:45;98451.53;;;14.84;75.33
55604;BME280;41468;48.838;9.330;2023-08-08T01:06:21;98440.16;;;14.86;74.05
55604;BME280;41468;48.838;9.330;2023-08-08T01:08:55;98437.78;;;14.95;74.04
55604;BME280;41468;48.838;9.330;2023-08-08T01:11:25;98442.09;;;14.85;75.07
55604;BME280;41468;48.838;9.330;2023-08-08T01:13:53;98442.09;;;14.85;76.16
55604;BME280;41468;48.838;9.330;2023-08-08T01:16:21;98444.06;;;14.77;75.44
55604;BME280;41468;48.838;9.330;2023-08-08T01:18:50;98448.00;;;14.66;75.84
55604;BME280;41468;48.838;9.330;2023-08-08T01:21:17;98442.13;;;14.67;75.95
55604;BME280;41468;48.838;9.330;2023-08-08T01:23:46;98442.91;;;14.68;76.13
55604;BME280;41468;48.838;9.330;2023-08-08T01:26:20;98443.69;;;14.68;76.38
55604;BME280;41468;48.838;9.330;2023-08-08T01:28:47;98437.81;;;14.70;76.45
55604;BME280;41468;48.838;9.330;2023-08-08T01:31:14;98432.31;;;14.70;76.43
55604;BME280;41468;48.838;9.330;2023-08-08T01:33:40;98428.38;;;14.60;76.63
55604;BME280;41468;48.838;9.330;2023-08-08T01:36:13;98429.94;;;14.57;76.92
55604;BME280;41468;48.838;9.330;2023-08-08T01:38:44;98439.38;;;14.67;76.79
55604;BME280;41468;48.838;9.330;2023-08-08T01:41:14;98430.72;;;14.69;76.88
55604;BME280;41468;48.838;9.330;2023-08-08T01:43:42;98430.72;;;14.58;77.26
55604;BME280;41468;48.838;9.330;2023-08-08T01:46:10;98432.28;;;14.63;76.93
55604;BME280;41468;48.838;9.330;2023-08-08T01:48:37;98421.31;;;14.63;77.13
55604;BME280;41468;48.838;9.330;2023-08-08T01:51:04;98428.38;;;14.60;77.34
55604;BME280;41468;48.838;9.330;2023-08-08T01:53:30;98423.25;;;14.58;77.14
55604;BME280;41468;48.838;9.330;2023-08-08T01:55:57;98422.06;;;14.56;77.47
55604;BME280;41468;48.838;9.330;2023-08-08T01:58:24;98415.81;;;14.63;77.37
55604;BME280;41468;48.838;9.330;2023-08-08T02:00:51;98415.81;;;14.63;77.09
55604;BME280;41468;48.838;9.330;2023-08-08T02:03:18;98427.97;;;14.65;77.33
55604;BME280;41468;48.838;9.330;2023-08-08T02:05:45;98425.22;;;14.69;77.06
55604;BME280;41468;48.838;9.330;2023-08-08T02:08:12;98414.63;;;14.64;77.80
55604;BME280;41468;48.838;9.330;2023-08-08T02:10:39;98405.19;;;14.72;77.07
55604;BME280;41468;48.838;9.330;2023-08-08T02:13:06;98409.91;;;14.71;76.29
55604;BME280;41468;48.838;9.330;2023-08-08T02:15:33;98409.53;;;14.66;77.05
55604;BME280;41468;48.838;9.330;2023-08-08T02:18:00;98414.22;;;14.69;77.70
55604;BME280;41468;48.838;9.330;2023-08-08T02:20:27;98403.63;;;14.74;77.12
55604;BME280;41468;48.838;9.330;2023-08-08T02:22:54;98414.22;;;14.69;77.76
55604;BME280;41468;48.838;9.330;2023-08-08T02:25:21;98406.41;;;14.78;77.31
55604;BME280;41468;48.838;9.330;2023-08-08T02:27:47;98408.34;;;14.70;77.60
55604;BME280;41468;48.838;9.330;2023-08-08T02:30:14;98410.31;;;14.73;77.91
55604;BME280;41468;48.838;9.330;2023-08-08T02:32:41;98408.34;;;14.67;77.81
55604;BME280;41468;48.838;9.330;2023-08-08T02:35:09;98413.84;;;14.63;78.53
55604;BME280;41468;48.838;9.330;2023-08-08T02:37:36;98413.47;;;14.75;78.41
55604;BME280;41468;48.838;9.330;2023-08-08T02:40:04;98408.75;;;14.65;78.33
55604;BME280;41468;48.838;9.330;2023-08-08T02:42:31;98418.16;;;14.71;77.98
55604;BME280;41468;48.838;9.330;2023-08-08T02:44:58;98407.16;;;14.71;79.03
55604;BME280;41468;48.838;9.330;2023-08-08T02:47:25;98410.31;;;14.66;79.29
55604;BME280;41468;48.838;9.330;2023-08-08T02:49:51;98414.25;;;14.65;79.00
55604;BME280;41468;48.838;9.330;2023-08-08T02:52:18;98417.34;;;14.53;80.82
55604;BME280;41468;48.838;9.330;2023-08-08T02:54:45;98411.50;;;14.65;80.73
55604;BME280;41468;48.838;9.330;2023-08-08T02:57:13;98413.84;;;14.67;79.16
55604;BME280;41468;48.838;9.330;2023-08-08T02:59:39;98409.50;;;14.58;80.59
55604;BME280;41468;48.838;9.330;2023-08-08T03:02:06;98409.50;;;14.58;78.80
55604;BME280;41468;48.838;9.330;2023-08-08T03:04:33;98409.91;;;14.57;79.38
55604;BME280;41468;48.838;9.330;2023-08-08T03:07:00;98409.09;;;14.49;79.98
55604;BME280;41468;48.838;9.330;2023-08-08T03:09:30;98402.84;;;14.52;80.42
55604;BME280;41468;48.838;9.330;2023-08-08T03:11:57;98399.31;;;14.59;79.56
55604;BME280;41468;48.838;9.330;2023-08-08T03:14:24;98405.22;;;14.54;81.04
55604;BME280;41468;48.838;9.330;2023-08-08T03:16:51;98401.63;;;14.35;82.56
55604;BME280;41468;48.838;9.330;2023-08-08T03:19:18;98403.19;;;14.33;82.39
55604;BME280;41468;48.838;9.330;2023-08-08T03:21:45;98394.19;;;14.43;82.39
55604;BME280;41468;48.838;9.330;2023-08-08T03:24:12;98393.78;;;14.27;82.56
55604;BME280;41468;48.838;9.330;2023-08-08T03:26:38;98392.97;;;14.19;83.19
55604;BME280;41468;48.838;9.330;2023-08-08T03:29:05;98400.81;;;14.13;84.17
55604;BME280;41468;48.838;9.330;2023-08-08T03:31:36;98396.06;;;14.03;85.00
55604;BME280;41468;48.838;9.330;2023-08-08T03:34:03;98392.13;;;14.01;85.21
55604;BME280;41468;48.838;9.330;2023-08-08T03:36:31;98400.38;;;14.04;84.97
55604;BME280;41468;48.838;9.330;2023-08-08T03:38:57;98401.59;;;14.10;84.17
55604;BME280;41468;48.838;9.330;2023-08-08T03:41:24;98399.25;;;14.20;83.99
55604;BME280;41468;48.838;9.330;2023-08-08T03:43:51;98405.50;;;14.09;84.80
55604;BME280;41468;48.838;9.330;2023-08-08T03:46:18;98408.63;;;14.11;83.41
55604;BME280;41468;48.838;9.330;2023-08-08T03:48:45;98403.16;;;14.15;83.71
55604;BME280;41468;48.838;9.330;2023-08-08T03:51:11;98407.06;;;14.03;85.13
55604;BME280;41468;48.838;9.330;2023-08-08T03:53:39;98401.97;;;14.12;84.50
55604;BME280;41468;48.838;9.330;2023-08-08T03:56:05;98402.75;;;14.13;85.41
55604;BME280;41468;48.838;9.330;2023-08-08T03:58:34;98404.72;;;14.12;87.05
55604;BME280;41468;48.838;9.330;2023-08-08T04:01:00;98402.00;;;14.20;86.30
55604;BME280;41468;48.838;9.330;2023-08-08T04:03:27;98398.06;;;14.21;85.49
55604;BME280;41468;48.838;9.330;2023-08-08T04:05:54;98401.63;;;14.32;84.86
55604;BME280;41468;48.838;9.330;2023-08-08T04:08:21;98394.97;;;14.40;84.49
55604;BME280;41468;48.838;9.330;2023-08-08T04:10:48;98404.75;;;14.34;83.04
55604;BME280;41468;48.838;9.330;2023-08-08T04:13:15;98403.19;;;14.44;83.55
55604;BME280;41468;48.838;9.330;2023-08-08T04:15:42;98405.19;;;14.57;81.45
55604;BME280;41468;48.838;9.330;2023-08-08T04:18:09;98406.75;;;14.58;82.32
55604;BME280;41468;48.838;9.330;2023-08-08T04:20:36;98407.94;;;14.57;82.53
55604;BME280;41468;48.838;9.330;2023-08-08T04:23:03;98407.19;;;14.53;83.64
55604;BME280;41468;48.838;9.330;2023-08-08T04:25:29;98414.59;;;14.49;84.88
55604;BME280;41468;48.838;9.330;2023-08-08T04:27:56;98405.59;;;14.52;85.00
55604;BME280;41468;48.838;9.330;2023-08-08T04:30:23;98409.88;;;14.46;86.46
55604;BME280;41468;48.838;9.330;2023-08-08T04:32:50;98408.72;;;14.58;85.52
55604;BME280;41468;48.838;9.330;2023-08-08T04:35:17;98403.63;;;14.53;83.90
55604;BME280;41468;48.838;9.330;2023-08-08T04:37:44;98407.16;;;14.57;81.63
55604;BME280;41468;48.838;9.330;2023-08-08T04:40:11;98410.72;;;14.54;81.42
55604;BME280;41468;48.838;9.330;2023-08-08T04:42:49;98419.31;;;14.67;80.71
55604;BME280;41468;48.838;9.330;2023-08-08T04:45:15;98416.19;;;14.57;81.23
55604;BME280;41468;48.838;9.330;2023-08-08T04:47:42;98415.41;;;14.61;81.85
55604;BME280;41468;48.838;9.330;2023-08-08T04:50:10;98419.75;;;14.62;84.24
55604;BME280;41468;48.838;9.330;2023-08-08T04:52:37;98417.38;;;14.60;84.48
55604;BME280;41468;48.838;9.330;2023-08-08T04:55:04;98422.88;;;14.64;84.88
55604;BME280;41468;48.838;9.330;2023-08-08T04:57:31;98426.78;;;14.63;84.45
55604;BME280;41468;48.838;9.330;2023-08-08T05:00:09;98426.00;;;14.66;81.81
55604;BME280;41468;48.838;9.330;2023-08-08T05:02:36;98428.38;;;14.78;81.13
55604;BME280;41468;48.838;9.330;2023-08-08T05:05:05;98433.09;;;14.81;79.83
55604;BME280;41468;48.838;9.330;2023-08-08T05:07:32;98428.38;;;14.92;79.66
55604;BME280;41468;48.838;9.330;2023-08-08T05:09:59;98424.03;;;14.98;79.68
55604;BME280;41468;48.838;9.330;2023-08-08T05:12:26;98418.91;;;15.04;79.54
55604;BME280;41468;48.838;9.330;2023-08-08T05:14:53;98412.25;;;15.01;77.74
55604;BME280;41468;48.838;9.330;2023-08-08T05:17:20;98410.69;;;15.00;77.54
55604;BME280;41468;48.838;9.330;2023-08-08T05:19:47;98410.28;;;15.06;78.03
55604;BME280;41468;48.838;9.330;2023-08-08T05:22:14;98409.09;;;15.07;79.69
55604;BME280;41468;48.838;9.330;2023-08-08T05:24:41;98407.16;;;15.03;79.49
55604;BME280;41468;48.838;9.330;2023-08-08T05:27:07;98399.69;;;15.00;78.86
55604;BME280;41468;48.838;9.330;2023-08-08T05:29:34;98404.41;;;15.11;78.71
55604;BME280;41468;48.838;9.330;2023-08-08T05:32:05;98403.59;;;15.21;79.15
55604;BME280;41468;48.838;9.330;2023-08-08T05:34:34;98405.50;;;15.38;78.06
55604;BME280;41468;48.838;9.330;2023-08-08T05:37:06;98411.75;;;15.50;78.63
55604;BME280;41468;48.838;9.330;2023-08-08T05:39:43;98418.81;;;15.58;77.62
55604;BME280;41468;48.838;9.330;2023-08-08T05:42:10;98408.19;;;15.67;76.03
55604;BME280;41468;48.838;9.330;2023-08-08T05:44:37;98425.06;;;15.76;75.47
55604;BME280;41468;48.838;9.330;2023-08-08T05:47:04;98424.25;;;15.83;75.82
55604;BME280;41468;48.838;9.330;2023-08-08T05:49:31;98428.91;;;16.00;74.76
55604;BME280;41468;48.838;9.330;2023-08-08T05:51:58;98423.34;;;16.11;75.29
55604;BME280;41468;48.838;9.330;2023-08-08T05:54:25;98430.78;;;16.14;74.52
55604;BME280;41468;48.838;9.330;2023-08-08T05:56:53;98428.81;;;16.18;73.47
55604;BME280;41468;48.838;9.330;2023-08-08T05:59:20;98434.25;;;16.25;73.79
55604;BME280;41468;48.838;9.330;2023-08-08T06:01:46;98432.69;;;16.28;72.59
55604;BME280;41468;48.838;9.330;2023-08-08T06:04:19;98427.06;;;16.46;71.90
55604;BME280;41468;48.838;9.330;2023-08-08T06:06:46;98432.19;;;16.47;70.90
55604;BME280;41468;48.838;9.330;2023-08-08T06:09:16;98422.28;;;16.53;71.49
55604;BME280;41468;48.838;9.330;2023-08-08T06:11:43;98429.22;;;16.72;69.98
55604;BME280;41468;48.838;9.330;2023-08-08T06:14:10;98422.88;;;16.83;69.65
55604;BME280;41468;48.838;9.330;2023-08-08T06:16:37;98430.66;;;16.95;70.92
55604;BME280;41468;48.838;9.330;2023-08-08T06:19:04;98418.72;;;17.09;70.77
55604;BME280;41468;48.838;9.330;2023-08-08T06:21:30;98417.81;;;17.19;68.78
55604;BME280;41468;48.838;9.330;2023-08-08T06:23:57;98416.94;;;17.29;69.14
55604;BME280;41468;48.838;9.330;2023-08-08T06:26:24;98421.50;;;17.43;68.43
55604;BME280;41468;48.838;9.330;2023-08-08T06:28:51;98419.13;;;17.45;66.89
55604;BME280;41468;48.838;9.330;2023-08-08T06:31:19;98421.41;;;17.54;67.75
55604;BME280;41468;48.838;9.330;2023-08-08T06:33:46;98419.06;;;17.52;67.26
55604;BME280;41468;48.838;9.330;2023-08-08T06:36:12;98413.50;;;17.56;68.98
55604;BME280;41468;48.838;9.330;2023-08-08T06:38:39;98418.19;;;17.59;66.60
55604;BME280;41468;48.838;9.330;2023-08-08T06:41:06;98426.53;;;17.55;66.23
55604;BME280;41468;48.838;9.330;2023-08-08T06:43:33;98416.09;;;17.70;67.27
55604;BME280;41468;48.838;9.330;2023-08-08T06:46:00;98421.09;;;17.82;68.50
55604;BME280;41468;48.838;9.330;2023-08-08T06:48:28;98421.75;;;17.94;66.06
55604;BME280;41468;48.838;9.330;2023-08-08T06:50:54;98421.97;;;18.06;66.88
55604;BME280;41468;48.838;9.330;2023-08-08T06:53:21;98423.13;;;18.09;66.17
55604;BME280;41468;48.838;9.330;2023-08-08T06:55:48;98412.47;;;18.07;65.45
55604;BME280;41468;48.838;9.330;2023-08-08T06:58:20;98416.72;;;18.16;65.44
55604;BME280;41468;48.838;9.330;2023-08-08T07:00:47;98417.16;;;18.10;65.06
55604;BME280;41468;48.838;9.330;2023-08-08T07:03:14;98413.31;;;18.35;65.43
55604;BME280;41468;48.838;9.330;2023-08-08T07:05:41;98412.34;;;18.45;63.55
55604;BME280;41468;48.838;9.330;2023-08-08T07:08:07;98411.22;;;18.66;65.36
55604;BME280;41468;48.838;9.330;2023-08-08T07:10:36;98408.00;;;18.71;62.18
55604;BME280;41468;48.838;9.330;2023-08-08T07:13:03;98410.22;;;18.84;63.32
55604;BME280;41468;48.838;9.330;2023-08-08T07:15:30;98407.66;;;18.93;64.18
55604;BME280;41468;48.838;9.330;2023-08-08T07:17:57;98412.91;;;19.11;62.98
55604;BME280;41468;48.838;9.330;2023-08-08T07:20:24;98416.53;;;19.08;60.93
55604;BME280;41468;48.838;9.330;2023-08-08T07:22:51;98421.69;;;19.06;63.13
55604;BME280;41468;48.838;9.330;2023-08-08T07:25:18;98418.47;;;19.31;62.79
55604;BME280;41468;48.838;9.330;2023-08-08T07:27:49;98419.78;;;19.23;59.72
55604;BME280;41468;48.838;9.330;2023-08-08T07:30:16;98413.28;;;19.33;59.79
55604;BME280;41468;48.838;9.330;2023-08-08T07:32:43;98411.84;;;19.25;59.33
55604;BME280;41468;48.838;9.330;2023-08-08T07:35:10;98417.88;;;19.19;59.38
55604;BME280;41468;48.838;9.330;2023-08-08T07:37:37;98409.16;;;19.21;60.13
55604;BME280;41468;48.838;9.330;2023-08-08T07:40:14;98410.13;;;19.34;60.58
55604;BME280;41468;48.838;9.330;2023-08-08T07:42:40;98413.25;;;19.56;59.43
55604;BME280;41468;48.838;9.330;2023-08-08T07:45:07;98410.50;;;19.96;59.25
55604;BME280;41468;48.838;9.330;2023-08-08T07:47:34;98410.34;;;20.20;58.52
55604;BME280;41468;48.838;9.330;2023-08-08T07:50:01;98411.53;;;20.39;57.90
55604;BME280;41468;48.838;9.330;2023-08-08T07:52:29;98405.44;;;20.64;56.99
55604;BME280;41468;48.838;9.330;2023-08-08T07:54:55;98400.25;;;20.82;56.10
55604;BME280;41468;48.838;9.330;2023-08-08T07:57:29;98390.50;;;20.90;54.09
55604;BME280;41468;48.838;9.330;2023-08-08T08:00:03;98383.06;;;21.16;53.33
55604;BME280;41468;48.838;9.330;2023-08-08T08:02:41;98390.34;;;21.43;52.66
55604;BME280;41468;48.838;9.330;2023-08-08T08:05:08;98384.28;;;21.61;53.76
55604;BME280;41468;48.838;9.330;2023-08-08T08:07:37;98379.22;;;21.85;53.25
55604;BME280;41468;48.838;9.330;2023-08-08T08:10:08;98381.81;;;21.50;53.19
55604;BME280;41468;48.838;9.330;2023-08-08T08:12:36;98388.78;;;21.42;53.85
55604;BME280;41468;48.838;9.330;2023-08-08T08:15:03;98390.78;;;21.42;53.27
55604;BME280;41468;48.838;9.330;2023-08-08T08:17:31;98376.09;;;21.41;51.47
55604;BME280;41468;48.838;9.330;2023-08-08T08:19:58;98384.97;;;21.36;52.67
55604;BME280;41468;48.838;9.330;2023-08-08T08:22:25;98384.03;;;21.26;50.37
55604;BME280;41468;48.838;9.330;2023-08-08T08:24:51;98384.13;;;21.23;50.91
55604;BME280;41468;48.838;9.330;2023-08-08T08:27:18;98388.09;;;21.22;52.80
55604;BME280;41468;48.838;9.330;2023-08-08T08:29:45;98388.41;;;20.94;51.97
55604;BME280;41468;48.838;9.330;2023-08-08T08:32:12;98387.13;;;20.83;51.82
55604;BME280;41468;48.838;9.330;2023-08-08T08:34:39;98381.84;;;20.72;51.96
55604;BME280;41468;48.838;9.330;2023-08-08T08:37:06;98389.72;;;20.73;54.35
55604;BME280;41468;48.838;9.330;2023-08-08T08:39:33;98390.78;;;20.63;53.16
55604;BME280;41468;48.838;9.330;2023-08-08T08:42:00;98387.75;;;20.74;53.59
55604;BME280;41468;48.838;9.330;2023-08-08T08:44:32;98384.00;;;20.81;53.05
55604;BME280;41468;48.838;9.330;2023-08-08T08:47:01;98378.34;;;20.84;53.52
55604;BME280;41468;48.838;9.330;2023-08-08T08:49:30;98380.78;;;20.99;52.89
55604;BME280;41468;48.838;9.330;2023-08-08T08:51:58;98370.25;;;21.06;53.52
55604;BME280;41468;48.838;9.330;2023-08-08T08:54:28;98382.78;;;21.27;53.31
55604;BME280;41468;48.838;9.330;2023-08-08T08:56:57;98384.25;;;21.32;52.76
55604;BME280;41468;48.838;9.330;2023-08-08T08:59:24;98373.31;;;21.41;51.07
55604;BME280;41468;48.838;9.330;2023-08-08T09:01:51;98374.78;;;21.46;51.59
55604;BME280;41468;48.838;9.330;2023-08-08T09:04:21;98381.06;;;21.62;50.88
55604;BME280;41468;48.838;9.330;2023-08-08T09:06:50;98369.53;;;21.77;49.31
55604;BME280;41468;48.838;9.330;2023-08-08T09:09:18;98373.75;;;21.69;50.43
55604;BME280;41468;48.838;9.330;2023-08-08T09:11:52;98370.69;;;21.50;50.92
55604;BME280;41468;48.838;9.330;2023-08-08T09:14:25;98374.72;;;21.33;51.30
55604;BME280;41468;48.838;9.330;2023-08-08T09:17:03;98365.75;;;21.12;52.23
55604;BME280;41468;48.838;9.330;2023-08-08T09:19:29;98361.44;;;20.95;52.29
55604;BME280;41468;48.838;9.330;2023-08-08T09:21:56;98365.00;;;20.95;53.95
55604;BME280;41468;48.838;9.330;2023-08-08T09:24:24;98360.91;;;21.00;53.02
55604;BME280;41468;48.838;9.330;2023-08-08T09:26:50;98369.38;;;21.26;52.79
55604;BME280;41468;48.838;9.330;2023-08-08T09:29:17;98363.72;;;21.58;51.36
55604;BME280;41468;48.838;9.330;2023-08-08T09:31:46;98363.00;;;21.42;52.00
55604;BME280;41468;48.838;9.330;2023-08-08T09:34:13;98349.09;;;21.12;51.90
55604;BME280;41468;48.838;9.330;2023-08-08T09:36:40;98349.66;;;20.91;50.80
55604;BME280;41468;48.838;9.330;2023-08-08T09:39:07;98347.50;;;21.11;52.29
55604;BME280;41468;48.838;9.330;2023-08-08T09:41:34;98341.78;;;21.18;51.41
55604;BME280;41468;48.838;9.330;2023-08-08T09:44:01;98336.41;;;21.11;51.43
55604;BME280;41468;48.838;9.330;2023-08-08T09:46:29;98345.63;;;21.08;51.36
55604;BME280;41468;48.838;9.330;2023-08-08T09:48:58;98340.00;;;21.12;51.84
55604;BME280;41468;48.838;9.330;2023-08-08T09:51:25;98344.13;;;21.20;51.32
55604;BME280;41468;48.838;9.330;2023-08-08T09:53:53;98337.53;;;21.14;53.34
55604;BME280;41468;48.838;9.330;2023-08-08T09:56:20;98333.84;;;21.33;49.75
55604;BME280;41468;48.838;9.330;2023-08-08T09:58:47;98331.13;;;21.46;50.31
55604;BME280;41468;48.838;9.330;2023-08-08T10:01:14;98335.75;;;21.36;50.82
55604;BME280;41468;48.838;9.330;2023-08-08T10:03:42;98341.03;;;21.60;50.11
55604;BME280;41468;48.838;9.330;2023-08-08T10:06:10;98326.44;;;21.85;48.70
55604;BME280;41468;48.838;9.330;2023-08-08T10:08:37;98327.88;;;22.02;48.39
55604;BME280;41468;48.838;9.330;2023-08-08T10:11:05;98336.19;;;21.77;47.69
55604;BME280;41468;48.838;9.330;2023-08-08T10:13:34;98333.53;;;21.86;47.24
55604;BME280;41468;48.838;9.330;2023-08-08T10:16:07;98333.13;;;22.00;46.50
55604;BME280;41468;48.838;9.330;2023-08-08T10:18:35;98323.53;;;22.01;46.92
55604;BME280;41468;48.838;9.330;2023-08-08T10:21:04;98321.28;;;21.83;46.24
55604;BME280;41468;48.838;9.330;2023-08-08T10:23:37;98323.50;;;21.63;45.94
55604;BME280;41468;48.838;9.330;2023-08-08T10:26:04;98321.44;;;21.93;46.79
55604;BME280;41468;48.838;9.330;2023-08-08T10:28:32;98326.84;;;21.71;45.29
55604;BME280;41468;48.838;9.330;2023-08-08T10:31:01;98323.16;;;21.61;45.95
55604;BME280;41468;48.838;9.330;2023-08-08T10:33:42;98332.28;;;21.61;45.13
55604;BME280;41468;48.838;9.330;2023-08-08T10:36:09;98328.75;;;21.87;46.08
55604;BME280;41468;48.838;9.330;2023-08-08T10:41:13;98331.59;;;22.25;44.22
55604;BME280;41468;48.838;9.330;2023-08-08T10:43:48;98324.41;;;22.62;43.72
55604;BME280;41468;48.838;9.330;2023-08-08T10:46:27;98323.53;;;22.53;43.11
55604;BME280;41468;48.838;9.330;2023-08-08T10:48:56;98316.09;;;22.37;44.51
55604;BME280;41468;48.838;9.330;2023-08-08T10:51:39;98315.38;;;22.71;43.15
55604;BME280;41468;48.838;9.330;2023-08-08T10:54:07;98322.03;;;22.74;43.50
55604;BME280;41468;48.838;9.330;2023-08-08T10:56:36;98316.16;;;22.59;43.42
55604;BME280;41468;48.838;9.330;2023-08-08T10:59:14;98316.13;;;22.71;43.37
55604;BME280;41468;48.838;9.330;2023-08-08T11:01:44;98316.59;;;23.05;44.95
55604;BME280;41468;48.838;9.330;2023-08-08T11:04:12;98308.63;;;23.60;43.40
55604;BME280;41468;48.838;9.330;2023-08-08T11:06:39;98318.75;;;23.98;39.60
55604;BME280;41468;48.838;9.330;2023-08-08T11:09:06;98311.66;;;24.06;41.02
55604;BME280;41468;48.838;9.330;2023-08-08T11:11:38;98316.53;;;23.84;39.70
55604;BME280;41468;48.838;9.330;2023-08-08T11:14:12;98310.97;;;23.84;39.45
55604;BME280;41468;48.838;9.330;2023-08-08T11:16:40;98300.50;;;24.06;40.08
55604;BME280;41468;48.838;9.330;2023-08-08T11:19:08;98304.66;;;24.01;38.74
55604;BME280;41468;48.838;9.330;2023-08-08T11:21:36;98308.44;;;24.08;39.83
55604;BME280;41468;48.838;9.330;2023-08-08T11:24:04;98304.56;;;24.05;39.75
55604;BME280;41468;48.838;9.330;2023-08-08T11:26:36;98302.28;;;24.22;39.88
55604;BME280;41468;48.838;9.330;2023-08-08T11:29:04;98308.66;;;24.32;39.63
55604;BME280;41468;48.838;9.330;2023-08-08T11:31:34;98296.59;;;24.35;40.05
55604;BME280;41468;48.838;9.330;2023-08-08T11:34:01;98303.53;;;24.21;39.55
55604;BME280;41468;48.838;9.330;2023-08-08T11:36:29;98296.81;;;24.09;39.94
55604;BME280;41468;48.838;9.330;2023-08-08T11:38:57;98291.00;;;24.35;39.99
55604;BME280;41468;48.838;9.330;2023-08-08T11:41:26;98294.16;;;24.46;39.53
55604;BME280;41468;48.838;9.330;2023-08-08T11:43:53;98285.19;;;24.69;38.67
55604;BME280;41468;48.838;9.330;2023-08-08T11:46:23;98293.28;;;24.86;38.27
55604;BME280;41468;48.838;9.330;2023-08-08T11:48:50;98294.34;;;24.98;38.37
55604;BME280;41468;48.838;9.330;2023-08-08T11:51:17;98288.00;;;24.97;39.15
55604;BME280;41468;48.838;9.330;2023-08-08T11:53:51;98280.25;;;25.01;37.68
55604;BME280;41468;48.838;9.330;2023-08-08T11:56:20;98282.13;;;25.23;39.20
55604;BME280;41468;48.838;9.330;2023-08-08T11:58:49;98274.75;;;25.44;38.43
55604;BME280;41468;48.838;9.330;2023-08-08T12:01:19;98278.94;;;25.48;38.28
55604;BME280;41468;48.838;9.330;2023-08-08T12:03:46;98277.56;;;25.53;38.33
55604;BME280;41468;48.838;9.330;2023-08-08T12:06:14;98273.56;;;25.26;38.87
55604;BME280;41468;48.838;9.330;2023-08-08T12:08:47;98285.94;;;25.44;39.47
55604;BME280;41468;48.838;9.330;2023-08-08T12:11:15;98274.31;;;25.08;39.04
55604;BME280;41468;48.838;9.330;2023-08-08T12:13:43;98280.25;;;24.83;38.69
55604;BME280;41468;48.838;9.330;2023-08-08T12:16:14;98281.84;;;24.34;40.02
55604;BME280;41468;48.838;9.330;2023-08-08T12:18:44;98285.66;;;24.09;39.72
55604;BME280;41468;48.838;9.330;2023-08-08T12:21:21;98282.63;;;24.35;40.61
55604;BME280;41468;48.838;9.330;2023-08-08T12:23:48;98267.69;;;24.69;40.15
55604;BME280;41468;48.838;9.330;2023-08-08T12:26:15;98267.97;;;24.71;41.22
55604;BME280;41468;48.838;9.330;2023-08-08T12:28:42;98268.75;;;24.53;38.67
55604;BME280;41468;48.838;9.330;2023-08-08T12:31:08;98266.56;;;24.48;38.77
55604;BME280;41468;48.838;9.330;2023-08-08T12:33:35;98259.38;;;24.38;38.76
55604;BME280;41468;48.838;9.330;2023-08-08T12:36:02;98264.81;;;24.41;40.83
55604;BME280;41468;48.838;9.330;2023-08-08T12:38:29;98262.41;;;24.12;40.68
55604;BME280;41468;48.838;9.330;2023-08-08T12:40:56;98261.25;;;24.32;39.88
55604;BME280;41468;48.838;9.330;2023-08-08T12:43:23;98259.97;;;24.23;39.34
55604;BME280;41468;48.838;9.330;2023-08-08T12:45:50;98277.34;;;24.28;40.24
55604;BME280;41468;48.838;9.330;2023-08-08T12:48:16;98269.44;;;24.26;39.04
55604;BME280;41468;48.838;9.330;2023-08-08T12:50:43;98254.69;;;24.16;40.26
55604;BME280;41468;48.838;9.330;2023-08-08T12:53:10;98271.38;;;24.07;39.55
55604;BME280;41468;48.838;9.330;2023-08-08T12:55:37;98264.00;;;23.82;40.16
55604;BME280;41468;48.838;9.330;2023-08-08T12:58:05;98264.19;;;23.88;40.84
55604;BME280;41468;48.838;9.330;2023-08-08T13:00:32;98256.53;;;24.10;41.36
55604;BME280;41468;48.838;9.330;2023-08-08T13:02:59;98250.38;;;24.24;40.25
55604;BME280;41468;48.838;9.330;2023-08-08T13:05:28;98248.59;;;24.67;40.38
55604;BME280;41468;48.838;9.330;2023-08-08T13:07:55;98242.84;;;24.71;41.22